PWSweather.com
Personal Weather Stations
Station Observations
KMOCREVE3
Whispering Hills, Creve Coeur, MO 63146

Whispering HillsCreve Coeur, MO 63146

Lat: 38.68, Lon: -90.463

Elevation: 530

Station Type: Vantage Vue

Latest ConditionsUpdated 11:20:01 PM CDT Wednesday, Aug 24, 2016
Currently Today's Max Today's Min Today's Average
Temperature 83.7°F28.7°C 93.3°F34.1°C 74.0°F23.3°C 83.2°F28.4°C
Dew Point 75.7°F24.3°C 77.7°F25.4°C 71.9°F22.2°C 75.2°F24.0°C
Winds 2.0 mph SE3.2 kmh SE 4.0 mph SSE6.4 kmh SSE - 1.9 mph 3.1 kmh
Wind Gusts 11.0 mph17.7 kmh 11.0 mph17.7 kmh - -
Humidity 77% 95% 57% 78%
Pressure 29.96 in1014.6 mb 30.05 in1017.6 mb 29.95 in1014.2 mb -
Hour Temp Dew Point Humidity Winds Wind Gusts Pressure Precip Precip Rate Daily Precip Total
11:20 PM 83.7°F28.7°C 75.7°F24.3°C 77% 2.0 mph SE3.2 kmh SE 11.0 mph17.7 kmh 29.96 in1014.6 mb 0.00 in0.0 mm 0.00 in0.0 mm 0.00 in0.0 mm
11:10 PM 83.7°F28.7°C 76.1°F24.5°C 78% 2.0 mph SE3.2 kmh SE 7.0 mph11.3 kmh 29.96 in1014.6 mb 0.00 in0.0 mm 0.00 in0.0 mm 0.00 in0.0 mm
11:00 PM 83.6°F28.7°C 76.4°F24.7°C 79% 2.0 mph SE3.2 kmh SE 6.0 mph9.7 kmh 29.96 in1014.6 mb 0.00 in0.0 mm 0.00 in0.0 mm 0.00 in0.0 mm
10:50 PM 83.4°F28.6°C 76.6°F24.8°C 80% 1.0 mph SE1.6 kmh SE 6.0 mph9.7 kmh 29.96 in1014.6 mb 0.00 in0.0 mm 0.00 in0.0 mm 0.00 in0.0 mm
10:40 PM 83.3°F28.5°C 76.5°F24.7°C 80% 1.0 mph SE1.6 kmh SE 3.0 mph4.8 kmh 29.96 in1014.6 mb 0.00 in0.0 mm 0.00 in0.0 mm 0.00 in0.0 mm
10:30 PM 83.6°F28.7°C 76.8°F24.9°C 80% 1.0 mph SE1.6 kmh SE 3.0 mph4.8 kmh 29.96 in1014.6 mb 0.00 in0.0 mm 0.00 in0.0 mm 0.00 in0.0 mm
10:20 PM 83.7°F28.7°C 76.9°F24.9°C 80% 1.0 mph SE1.6 kmh SE 3.0 mph4.8 kmh 29.97 in1014.9 mb 0.00 in0.0 mm 0.00 in0.0 mm 0.00 in0.0 mm
10:10 PM 84.1°F28.9°C 77.3°F25.2°C 80% 1.0 mph SE1.6 kmh SE 3.0 mph4.8 kmh 29.97 in1014.9 mb 0.00 in0.0 mm 0.00 in0.0 mm 0.00 in0.0 mm
10:00 PM 84.1°F28.9°C 77.3°F25.2°C 80% 1.0 mph ESE1.6 kmh ESE 2.0 mph3.2 kmh 29.97 in1014.9 mb 0.00 in0.0 mm 0.00 in0.0 mm 0.00 in0.0 mm
09:50 PM 84.5°F29.2°C 77.3°F25.2°C 79% 1.0 mph SE1.6 kmh SE 4.0 mph6.4 kmh 29.97 in1014.9 mb 0.00 in0.0 mm 0.00 in0.0 mm 0.00 in0.0 mm
09:40 PM 84.9°F29.4°C 77.3°F25.2°C 78% 2.0 mph SE3.2 kmh SE 6.0 mph9.7 kmh 29.97 in1014.9 mb 0.00 in0.0 mm 0.00 in0.0 mm 0.00 in0.0 mm
09:30 PM 85.4°F29.7°C 77.0°F25.0°C 76% 2.0 mph SE3.2 kmh SE 3.0 mph4.8 kmh 29.97 in1014.9 mb 0.00 in0.0 mm 0.00 in0.0 mm 0.00 in0.0 mm
09:20 PM 85.2°F29.6°C 76.8°F24.9°C 76% 2.0 mph SE3.2 kmh SE 7.0 mph11.3 kmh 29.97 in1014.9 mb 0.00 in0.0 mm 0.00 in0.0 mm 0.00 in0.0 mm
09:10 PM 85.5°F29.7°C 77.1°F25.1°C 76% 2.0 mph SE3.2 kmh SE 3.0 mph4.8 kmh 29.97 in1014.9 mb 0.00 in0.0 mm 0.00 in0.0 mm 0.00 in0.0 mm
09:00 PM 85.7°F29.8°C 77.3°F25.2°C 76% 1.0 mph SE1.6 kmh SE 3.0 mph4.8 kmh 29.96 in1014.6 mb 0.00 in0.0 mm 0.00 in0.0 mm 0.00 in0.0 mm
08:50 PM 86.2°F30.1°C 77.7°F25.4°C 76% 1.0 mph SE1.6 kmh SE 3.0 mph4.8 kmh 29.96 in1014.6 mb 0.00 in0.0 mm 0.00 in0.0 mm 0.00 in0.0 mm
08:40 PM 86.5°F30.3°C 77.6°F25.3°C 75% Calm Calm 3.0 mph4.8 kmh 29.95 in1014.2 mb 0.00 in0.0 mm 0.00 in0.0 mm 0.00 in0.0 mm
08:30 PM 87.0°F30.6°C 77.3°F25.2°C 73% Calm Calm 2.0 mph3.2 kmh 29.95 in1014.2 mb 0.00 in0.0 mm 0.00 in0.0 mm 0.00 in0.0 mm
08:20 PM 87.5°F30.8°C 77.4°F25.2°C 72% 1.0 mph ESE1.6 kmh ESE 2.0 mph3.2 kmh 29.95 in1014.2 mb 0.00 in0.0 mm 0.00 in0.0 mm 0.00 in0.0 mm
08:10 PM 87.7°F30.9°C 77.1°F25.1°C 71% Calm Calm 2.0 mph3.2 kmh 29.95 in1014.2 mb 0.00 in0.0 mm 0.00 in0.0 mm 0.00 in0.0 mm
08:00 PM 88.3°F31.3°C 77.3°F25.2°C 70% 1.0 mph ESE1.6 kmh ESE 2.0 mph3.2 kmh 29.95 in1014.2 mb 0.00 in0.0 mm 0.00 in0.0 mm 0.00 in0.0 mm
07:50 PM 88.5°F31.4°C 77.0°F25.0°C 69% Calm Calm 2.0 mph3.2 kmh 29.95 in1014.2 mb 0.00 in0.0 mm 0.00 in0.0 mm 0.00 in0.0 mm
07:40 PM 88.8°F31.6°C 76.4°F24.7°C 67% Calm Calm 1.0 mph1.6 kmh 29.95 in1014.2 mb 0.00 in0.0 mm 0.00 in0.0 mm 0.00 in0.0 mm
07:30 PM 89.3°F31.8°C 76.4°F24.7°C 66% Calm Calm 1.0 mph1.6 kmh 29.95 in1014.2 mb 0.00 in0.0 mm 0.00 in0.0 mm 0.00 in0.0 mm
07:20 PM 89.8°F32.1°C 76.5°F24.7°C 65% Calm Calm 1.0 mph1.6 kmh 29.95 in1014.2 mb 0.00 in0.0 mm 0.00 in0.0 mm 0.00 in0.0 mm
07:10 PM 90.2°F32.3°C 75.9°F24.4°C 63% Calm Calm 2.0 mph3.2 kmh 29.95 in1014.2 mb 0.00 in0.0 mm 0.00 in0.0 mm 0.00 in0.0 mm
07:00 PM 90.6°F32.6°C 76.3°F24.6°C 63% Calm Calm 2.0 mph3.2 kmh 29.95 in1014.2 mb 0.00 in0.0 mm 0.00 in0.0 mm 0.00 in0.0 mm
06:50 PM 90.8°F32.7°C 76.5°F24.7°C 63% Calm Calm 2.0 mph3.2 kmh 29.95 in1014.2 mb 0.00 in0.0 mm 0.00 in0.0 mm 0.00 in0.0 mm
06:40 PM 90.9°F32.7°C 76.6°F24.8°C 63% 1.0 mph SE1.6 kmh SE 5.0 mph8.0 kmh 29.95 in1014.2 mb 0.00 in0.0 mm 0.00 in0.0 mm 0.00 in0.0 mm
06:30 PM 91.0°F32.8°C 76.7°F24.8°C 63% 1.0 mph S1.6 kmh S 4.0 mph6.4 kmh 29.95 in1014.2 mb 0.00 in0.0 mm 0.00 in0.0 mm 0.00 in0.0 mm
06:20 PM 91.2°F32.9°C 76.4°F24.7°C 62% 1.0 mph S1.6 kmh S 2.0 mph3.2 kmh 29.95 in1014.2 mb 0.00 in0.0 mm 0.00 in0.0 mm 0.00 in0.0 mm
05:50 PM 91.9°F33.3°C 76.5°F24.7°C 61% 3.0 mph SE4.8 kmh SE 7.0 mph11.3 kmh 29.95 in1014.2 mb 0.00 in0.0 mm 0.00 in0.0 mm 0.00 in0.0 mm
05:40 PM 92.3°F33.5°C 77.4°F25.2°C 62% 1.0 mph SE1.6 kmh SE 6.0 mph9.7 kmh 29.95 in1014.2 mb 0.00 in0.0 mm 0.00 in0.0 mm 0.00 in0.0 mm
05:30 PM 92.1°F33.4°C 76.7°F24.8°C 61% 1.0 mph SE1.6 kmh SE 4.0 mph6.4 kmh 29.96 in1014.6 mb 0.00 in0.0 mm 0.00 in0.0 mm 0.00 in0.0 mm
05:20 PM 91.6°F33.1°C 76.2°F24.6°C 61% 1.0 mph WNW1.6 kmh WNW 4.0 mph6.4 kmh 29.96 in1014.6 mb 0.00 in0.0 mm 0.00 in0.0 mm 0.00 in0.0 mm
05:10 PM 91.6°F33.1°C 76.2°F24.6°C 61% 1.0 mph SW1.6 kmh SW 3.0 mph4.8 kmh 29.96 in1014.6 mb 0.00 in0.0 mm 0.00 in0.0 mm 0.00 in0.0 mm
05:00 PM 92.2°F33.4°C 75.8°F24.3°C 59% 2.0 mph S3.2 kmh S 6.0 mph9.7 kmh 29.96 in1014.6 mb 0.00 in0.0 mm 0.00 in0.0 mm 0.00 in0.0 mm
04:50 PM 93.3°F34.1°C 75.8°F24.3°C 57% 1.0 mph SE1.6 kmh SE 6.0 mph9.7 kmh 29.96 in1014.6 mb 0.00 in0.0 mm 0.00 in0.0 mm 0.00 in0.0 mm
04:40 PM 92.7°F33.7°C 76.8°F24.9°C 60% 1.0 mph S1.6 kmh S 4.0 mph6.4 kmh 29.96 in1014.6 mb 0.00 in0.0 mm 0.00 in0.0 mm 0.00 in0.0 mm
04:30 PM 93.3°F34.1°C 76.3°F24.6°C 58% 2.0 mph SE3.2 kmh SE 4.0 mph6.4 kmh 29.96 in1014.6 mb 0.00 in0.0 mm 0.00 in0.0 mm 0.00 in0.0 mm
04:20 PM 92.9°F33.8°C 75.9°F24.4°C 58% 2.0 mph WSW3.2 kmh WSW 7.0 mph11.3 kmh 29.96 in1014.6 mb 0.00 in0.0 mm 0.00 in0.0 mm 0.00 in0.0 mm
04:10 PM 92.8°F33.8°C 76.4°F24.7°C 59% 1.0 mph SE1.6 kmh SE 5.0 mph8.0 kmh 29.95 in1014.2 mb 0.00 in0.0 mm 0.00 in0.0 mm 0.00 in0.0 mm
04:00 PM 92.8°F33.8°C 75.3°F24.1°C 57% 2.0 mph WSW3.2 kmh WSW 5.0 mph8.0 kmh 29.95 in1014.2 mb 0.00 in0.0 mm 0.00 in0.0 mm 0.00 in0.0 mm
03:50 PM 92.9°F33.8°C 75.4°F24.1°C 57% 2.0 mph WSW3.2 kmh WSW 5.0 mph8.0 kmh 29.95 in1014.2 mb 0.00 in0.0 mm 0.00 in0.0 mm 0.00 in0.0 mm
03:40 PM 93.0°F33.9°C 76.0°F24.4°C 58% 2.0 mph W3.2 kmh W 4.0 mph6.4 kmh 29.96 in1014.6 mb 0.00 in0.0 mm 0.00 in0.0 mm 0.00 in0.0 mm
03:30 PM 92.8°F33.8°C 76.4°F24.7°C 59% 2.0 mph SE3.2 kmh SE 4.0 mph6.4 kmh 29.96 in1014.6 mb 0.00 in0.0 mm 0.00 in0.0 mm 0.00 in0.0 mm
03:20 PM 92.5°F33.6°C 76.1°F24.5°C 59% 2.0 mph SSE3.2 kmh SSE 4.0 mph6.4 kmh 29.97 in1014.9 mb 0.00 in0.0 mm 0.00 in0.0 mm 0.00 in0.0 mm
03:10 PM 92.0°F33.3°C 76.6°F24.8°C 61% 2.0 mph SSW3.2 kmh SSW 5.0 mph8.0 kmh 29.97 in1014.9 mb 0.00 in0.0 mm 0.00 in0.0 mm 0.00 in0.0 mm
03:00 PM 91.4°F33.0°C 76.1°F24.5°C 61% 2.0 mph SW3.2 kmh SW 6.0 mph9.7 kmh 29.97 in1014.9 mb 0.00 in0.0 mm 0.00 in0.0 mm 0.00 in0.0 mm
02:50 PM 90.9°F32.7°C 76.6°F24.8°C 63% 1.0 mph WSW1.6 kmh WSW 5.0 mph8.0 kmh 29.97 in1014.9 mb 0.00 in0.0 mm 0.00 in0.0 mm 0.00 in0.0 mm
02:40 PM 90.5°F32.5°C 76.2°F24.6°C 63% 2.0 mph WNW3.2 kmh WNW 9.0 mph14.5 kmh 29.98 in1015.2 mb 0.00 in0.0 mm 0.00 in0.0 mm 0.00 in0.0 mm
02:30 PM 91.2°F32.9°C 75.9°F24.4°C 61% 2.0 mph SSE3.2 kmh SSE 7.0 mph11.3 kmh 29.98 in1015.2 mb 0.00 in0.0 mm 0.00 in0.0 mm 0.00 in0.0 mm
02:20 PM 91.1°F32.8°C 76.7°F24.8°C 63% 2.0 mph SW3.2 kmh SW 7.0 mph11.3 kmh 29.98 in1015.2 mb 0.00 in0.0 mm 0.00 in0.0 mm 0.00 in0.0 mm
02:10 PM 91.4°F33.0°C 76.5°F24.7°C 62% 2.0 mph NW3.2 kmh NW 7.0 mph11.3 kmh 29.98 in1015.2 mb 0.00 in0.0 mm 0.00 in0.0 mm 0.00 in0.0 mm
02:00 PM 91.6°F33.1°C 77.2°F25.1°C 63% 2.0 mph SSE3.2 kmh SSE 6.0 mph9.7 kmh 29.99 in1015.6 mb 0.00 in0.0 mm 0.00 in0.0 mm 0.00 in0.0 mm
01:50 PM 91.6°F33.1°C 77.2°F25.1°C 63% 2.0 mph SSE3.2 kmh SSE 4.0 mph6.4 kmh 29.99 in1015.6 mb 0.00 in0.0 mm 0.00 in0.0 mm 0.00 in0.0 mm
01:40 PM 90.4°F32.4°C 77.0°F25.0°C 65% 2.0 mph NW3.2 kmh NW 6.0 mph9.7 kmh 29.99 in1015.6 mb 0.00 in0.0 mm 0.00 in0.0 mm 0.00 in0.0 mm
01:30 PM 89.8°F32.1°C 76.9°F24.9°C 66% 3.0 mph WNW4.8 kmh WNW 10.0 mph16.1 kmh 29.99 in1015.6 mb 0.00 in0.0 mm 0.00 in0.0 mm 0.00 in0.0 mm
01:20 PM 89.8°F32.1°C 76.5°F24.7°C 65% 3.0 mph WNW4.8 kmh WNW 10.0 mph16.1 kmh 30.00 in1015.9 mb 0.00 in0.0 mm 0.00 in0.0 mm 0.00 in0.0 mm
01:10 PM 89.4°F31.9°C 76.1°F24.5°C 65% 2.0 mph NW3.2 kmh NW 7.0 mph11.3 kmh 30.00 in1015.9 mb 0.00 in0.0 mm 0.00 in0.0 mm 0.00 in0.0 mm
01:00 PM 89.5°F31.9°C 77.1°F25.1°C 67% 2.0 mph S3.2 kmh S 5.0 mph8.0 kmh 30.00 in1015.9 mb 0.00 in0.0 mm 0.00 in0.0 mm 0.00 in0.0 mm
12:50 PM 88.6°F31.4°C 76.2°F24.6°C 67% 3.0 mph WNW4.8 kmh WNW 9.0 mph14.5 kmh 30.00 in1015.9 mb 0.00 in0.0 mm 0.00 in0.0 mm 0.00 in0.0 mm
12:40 PM 88.6°F31.4°C 75.8°F24.3°C 66% 3.0 mph NW4.8 kmh NW 9.0 mph14.5 kmh 30.01 in1016.3 mb 0.00 in0.0 mm 0.00 in0.0 mm 0.00 in0.0 mm
12:30 PM 88.6°F31.4°C 77.1°F25.1°C 69% 2.0 mph WNW3.2 kmh WNW 9.0 mph14.5 kmh 30.00 in1015.9 mb 0.00 in0.0 mm 0.00 in0.0 mm 0.00 in0.0 mm
12:20 PM 88.5°F31.4°C 77.0°F25.0°C 69% 2.0 mph SSW3.2 kmh SSW 8.0 mph12.9 kmh 30.01 in1016.3 mb 0.00 in0.0 mm 0.00 in0.0 mm 0.00 in0.0 mm
12:10 PM 87.5°F30.8°C 76.5°F24.7°C 70% 3.0 mph WNW4.8 kmh WNW 9.0 mph14.5 kmh 30.01 in1016.3 mb 0.00 in0.0 mm 0.00 in0.0 mm 0.00 in0.0 mm
12:00 PM 87.3°F30.7°C 76.3°F24.6°C 70% 2.0 mph S3.2 kmh S 10.0 mph16.1 kmh 30.01 in1016.3 mb 0.00 in0.0 mm 0.00 in0.0 mm 0.00 in0.0 mm
11:50 AM 87.2°F30.7°C 76.6°F24.8°C 71% 2.0 mph S3.2 kmh S 8.0 mph12.9 kmh 30.01 in1016.3 mb 0.00 in0.0 mm 0.00 in0.0 mm 0.00 in0.0 mm
11:40 AM 86.9°F30.5°C 75.9°F24.4°C 70% 3.0 mph SW4.8 kmh SW 9.0 mph14.5 kmh 30.01 in1016.3 mb 0.00 in0.0 mm 0.00 in0.0 mm 0.00 in0.0 mm
11:30 AM 86.9°F30.5°C 75.9°F24.4°C 70% 4.0 mph W6.4 kmh W 11.0 mph17.7 kmh 30.00 in1015.9 mb 0.00 in0.0 mm 0.00 in0.0 mm 0.00 in0.0 mm
11:20 AM 87.3°F30.7°C 76.7°F24.8°C 71% 3.0 mph SW4.8 kmh SW 10.0 mph16.1 kmh 30.00 in1015.9 mb 0.00 in0.0 mm 0.00 in0.0 mm 0.00 in0.0 mm
11:10 AM 86.6°F30.3°C 76.1°F24.5°C 71% 4.0 mph SSE6.4 kmh SSE 9.0 mph14.5 kmh 30.00 in1015.9 mb 0.00 in0.0 mm 0.00 in0.0 mm 0.00 in0.0 mm
11:00 AM 86.3°F30.2°C 76.2°F24.6°C 72% 4.0 mph SE6.4 kmh SE 10.0 mph16.1 kmh 29.99 in1015.6 mb 0.00 in0.0 mm 0.00 in0.0 mm 0.00 in0.0 mm
10:50 AM 85.9°F29.9°C 76.2°F24.6°C 73% 3.0 mph SE4.8 kmh SE 11.0 mph17.7 kmh 29.98 in1015.2 mb 0.00 in0.0 mm 0.00 in0.0 mm 0.00 in0.0 mm
10:40 AM 85.3°F29.6°C 76.1°F24.5°C 74% 3.0 mph SE4.8 kmh SE 8.0 mph12.9 kmh 29.98 in1015.2 mb 0.00 in0.0 mm 0.00 in0.0 mm 0.00 in0.0 mm
10:30 AM 84.7°F29.3°C 76.3°F24.6°C 76% 4.0 mph SE6.4 kmh SE 10.0 mph16.1 kmh 29.98 in1015.2 mb 0.00 in0.0 mm 0.00 in0.0 mm 0.00 in0.0 mm
10:20 AM 84.3°F29.1°C 75.9°F24.4°C 76% 4.0 mph SE6.4 kmh SE 10.0 mph16.1 kmh 29.97 in1014.9 mb 0.00 in0.0 mm 0.00 in0.0 mm 0.00 in0.0 mm
10:10 AM 84.0°F28.9°C 75.6°F24.2°C 76% 3.0 mph SE4.8 kmh SE 10.0 mph16.1 kmh 29.98 in1015.2 mb 0.00 in0.0 mm 0.00 in0.0 mm 0.00 in0.0 mm
10:00 AM 83.4°F28.6°C 75.8°F24.3°C 78% 3.0 mph SE4.8 kmh SE 8.0 mph12.9 kmh 29.98 in1015.2 mb 0.00 in0.0 mm 0.00 in0.0 mm 0.00 in0.0 mm
09:50 AM 82.6°F28.1°C 75.8°F24.3°C 80% 4.0 mph SE6.4 kmh SE 8.0 mph12.9 kmh 29.98 in1015.2 mb 0.00 in0.0 mm 0.00 in0.0 mm 0.00 in0.0 mm
09:40 AM 82.4°F28.0°C 75.2°F24.0°C 79% 4.0 mph SSE6.4 kmh SSE 11.0 mph17.7 kmh 29.98 in1015.2 mb 0.00 in0.0 mm 0.00 in0.0 mm 0.00 in0.0 mm
09:30 AM 82.5°F28.1°C 75.3°F24.1°C 79% 3.0 mph SE4.8 kmh SE 10.0 mph16.1 kmh 29.99 in1015.6 mb 0.00 in0.0 mm 0.00 in0.0 mm 0.00 in0.0 mm
09:20 AM 82.1°F27.8°C 75.7°F24.3°C 81% 2.0 mph SE3.2 kmh SE 5.0 mph8.0 kmh 30.00 in1015.9 mb 0.00 in0.0 mm 0.00 in0.0 mm 0.00 in0.0 mm
09:10 AM 81.3°F27.4°C 75.6°F24.2°C 83% 2.0 mph SE3.2 kmh SE 7.0 mph11.3 kmh 30.00 in1015.9 mb 0.00 in0.0 mm 0.00 in0.0 mm 0.00 in0.0 mm
09:00 AM 80.6°F27.0°C 75.3°F24.1°C 84% 3.0 mph SE4.8 kmh SE 9.0 mph14.5 kmh 30.00 in1015.9 mb 0.00 in0.0 mm 0.00 in0.0 mm 0.00 in0.0 mm
08:50 AM 80.1°F26.7°C 74.8°F23.8°C 84% 2.0 mph SSE3.2 kmh SSE 6.0 mph9.7 kmh 30.00 in1015.9 mb 0.00 in0.0 mm 0.00 in0.0 mm 0.00 in0.0 mm
08:40 AM 79.6°F26.4°C 75.0°F23.9°C 86% 1.0 mph SE1.6 kmh SE 5.0 mph8.0 kmh 30.01 in1016.3 mb 0.00 in0.0 mm 0.00 in0.0 mm 0.00 in0.0 mm
08:30 AM 79.2°F26.2°C 74.6°F23.7°C 86% 2.0 mph SSE3.2 kmh SSE 8.0 mph12.9 kmh 30.01 in1016.3 mb 0.00 in0.0 mm 0.00 in0.0 mm 0.00 in0.0 mm
08:20 AM 78.7°F25.9°C 74.5°F23.6°C 87% 2.0 mph SE3.2 kmh SE 10.0 mph16.1 kmh 30.01 in1016.3 mb 0.00 in0.0 mm 0.00 in0.0 mm 0.00 in0.0 mm
08:10 AM 78.3°F25.7°C 74.5°F23.6°C 88% 2.0 mph SE3.2 kmh SE 8.0 mph12.9 kmh 30.01 in1016.3 mb 0.00 in0.0 mm 0.00 in0.0 mm 0.00 in0.0 mm
08:00 AM 77.9°F25.5°C 74.4°F23.6°C 89% 2.0 mph SE3.2 kmh SE 4.0 mph6.4 kmh 30.01 in1016.3 mb 0.00 in0.0 mm 0.00 in0.0 mm 0.00 in0.0 mm
07:50 AM 77.6°F25.3°C 74.4°F23.6°C 90% 2.0 mph SE3.2 kmh SE 9.0 mph14.5 kmh 30.00 in1015.9 mb 0.00 in0.0 mm 0.00 in0.0 mm 0.00 in0.0 mm
07:40 AM 77.2°F25.1°C 74.0°F23.3°C 90% 3.0 mph SE4.8 kmh SE 7.0 mph11.3 kmh 30.00 in1015.9 mb 0.00 in0.0 mm 0.00 in0.0 mm 0.00 in0.0 mm
07:30 AM 76.9°F24.9°C 74.1°F23.4°C 91% 2.0 mph SE3.2 kmh SE 6.0 mph9.7 kmh 30.00 in1015.9 mb 0.00 in0.0 mm 0.00 in0.0 mm 0.00 in0.0 mm
07:20 AM 76.6°F24.8°C 73.8°F23.2°C 91% 3.0 mph SE4.8 kmh SE 7.0 mph11.3 kmh 30.00 in1015.9 mb 0.00 in0.0 mm 0.00 in0.0 mm 0.00 in0.0 mm
07:10 AM 76.4°F24.7°C 73.6°F23.1°C 91% 3.0 mph SE4.8 kmh SE 7.0 mph11.3 kmh 29.99 in1015.6 mb 0.00 in0.0 mm 0.00 in0.0 mm 0.00 in0.0 mm
07:00 AM 76.1°F24.5°C 73.6°F23.1°C 92% 3.0 mph SE4.8 kmh SE 7.0 mph11.3 kmh 30.00 in1015.9 mb 0.00 in0.0 mm 0.00 in0.0 mm 0.00 in0.0 mm
06:50 AM 76.0°F24.4°C 73.5°F23.1°C 92% 3.0 mph SE4.8 kmh SE 7.0 mph11.3 kmh 30.00 in1015.9 mb 0.00 in0.0 mm 0.00 in0.0 mm 0.00 in0.0 mm
06:40 AM 75.8°F24.3°C 73.6°F23.1°C 93% 2.0 mph SE3.2 kmh SE 7.0 mph11.3 kmh 30.00 in1015.9 mb 0.00 in0.0 mm 0.00 in0.0 mm 0.00 in0.0 mm
06:30 AM 75.8°F24.3°C 73.6°F23.1°C 93% 2.0 mph SE3.2 kmh SE 6.0 mph9.7 kmh 30.00 in1015.9 mb 0.00 in0.0 mm 0.00 in0.0 mm 0.00 in0.0 mm
06:20 AM 75.4°F24.1°C 73.6°F23.1°C 94% 2.0 mph SE3.2 kmh SE 6.0 mph9.7 kmh 29.99 in1015.6 mb 0.00 in0.0 mm 0.00 in0.0 mm 0.00 in0.0 mm
06:10 AM 75.3°F24.1°C 73.1°F22.8°C 93% 2.0 mph SE3.2 kmh SE 7.0 mph11.3 kmh 30.00 in1015.9 mb 0.00 in0.0 mm 0.00 in0.0 mm 0.00 in0.0 mm
06:00 AM 75.1°F23.9°C 73.3°F22.9°C 94% 2.0 mph SE3.2 kmh SE 4.0 mph6.4 kmh 30.00 in1015.9 mb 0.00 in0.0 mm 0.00 in0.0 mm 0.00 in0.0 mm
05:50 AM 75.1°F23.9°C 73.3°F22.9°C 94% 2.0 mph SE3.2 kmh SE 7.0 mph11.3 kmh 30.00 in1015.9 mb 0.00 in0.0 mm 0.00 in0.0 mm 0.00 in0.0 mm
05:40 AM 75.0°F23.9°C 73.2°F22.9°C 94% 1.0 mph SE1.6 kmh SE 4.0 mph6.4 kmh 30.00 in1015.9 mb 0.00 in0.0 mm 0.00 in0.0 mm 0.00 in0.0 mm
05:30 AM 75.0°F23.9°C 73.2°F22.9°C 94% 1.0 mph SE1.6 kmh SE 7.0 mph11.3 kmh 30.00 in1015.9 mb 0.00 in0.0 mm 0.00 in0.0 mm 0.00 in0.0 mm
05:20 AM 75.0°F23.9°C 73.2°F22.9°C 94% 2.0 mph ESE3.2 kmh ESE 7.0 mph11.3 kmh 30.00 in1015.9 mb 0.00 in0.0 mm 0.00 in0.0 mm 0.00 in0.0 mm
05:10 AM 75.1°F23.9°C 72.9°F22.7°C 93% 3.0 mph SE4.8 kmh SE 8.0 mph12.9 kmh 30.00 in1015.9 mb 0.00 in0.0 mm 0.00 in0.0 mm 0.00 in0.0 mm
05:00 AM 75.3°F24.1°C 73.1°F22.8°C 93% 3.0 mph SE4.8 kmh SE 10.0 mph16.1 kmh 30.00 in1015.9 mb 0.00 in0.0 mm 0.00 in0.0 mm 0.00 in0.0 mm
04:50 AM 75.1°F23.9°C 73.3°F22.9°C 94% 2.0 mph SE3.2 kmh SE 7.0 mph11.3 kmh 30.01 in1016.3 mb 0.00 in0.0 mm 0.00 in0.0 mm 0.00 in0.0 mm
04:40 AM 75.2°F24.0°C 73.4°F23.0°C 94% 3.0 mph SE4.8 kmh SE 8.0 mph12.9 kmh 30.01 in1016.3 mb 0.00 in0.0 mm 0.00 in0.0 mm 0.00 in0.0 mm
04:30 AM 75.0°F23.9°C 73.2°F22.9°C 94% 2.0 mph SE3.2 kmh SE 7.0 mph11.3 kmh 30.01 in1016.3 mb 0.00 in0.0 mm 0.00 in0.0 mm 0.00 in0.0 mm
04:20 AM 75.1°F23.9°C 73.3°F22.9°C 94% 3.0 mph SE4.8 kmh SE 8.0 mph12.9 kmh 30.00 in1015.9 mb 0.00 in0.0 mm 0.00 in0.0 mm 0.00 in0.0 mm
04:10 AM 75.1°F23.9°C 73.3°F22.9°C 94% 2.0 mph SE3.2 kmh SE 4.0 mph6.4 kmh 30.01 in1016.3 mb 0.00 in0.0 mm 0.00 in0.0 mm 0.00 in0.0 mm
04:00 AM 75.1°F23.9°C 73.3°F22.9°C 94% 3.0 mph SE4.8 kmh SE 10.0 mph16.1 kmh 30.01 in1016.3 mb 0.00 in0.0 mm 0.00 in0.0 mm 0.00 in0.0 mm
03:50 AM 75.1°F23.9°C 73.3°F22.9°C 94% 2.0 mph SE3.2 kmh SE 4.0 mph6.4 kmh 30.02 in1016.6 mb 0.00 in0.0 mm 0.00 in0.0 mm 0.00 in0.0 mm
03:40 AM 75.0°F23.9°C 73.2°F22.9°C 94% 2.0 mph SE3.2 kmh SE 8.0 mph12.9 kmh 30.02 in1016.6 mb 0.00 in0.0 mm 0.00 in0.0 mm 0.00 in0.0 mm
03:30 AM 74.8°F23.8°C 73.3°F22.9°C 95% 2.0 mph SE3.2 kmh SE 8.0 mph12.9 kmh 30.02 in1016.6 mb 0.00 in0.0 mm 0.00 in0.0 mm 0.00 in0.0 mm
03:20 AM 74.6°F23.7°C 73.1°F22.8°C 95% 2.0 mph SE3.2 kmh SE 9.0 mph14.5 kmh 30.02 in1016.6 mb 0.00 in0.0 mm 0.00 in0.0 mm 0.00 in0.0 mm
03:10 AM 74.4°F23.6°C 72.9°F22.7°C 95% 2.0 mph SE3.2 kmh SE 7.0 mph11.3 kmh 30.02 in1016.6 mb 0.00 in0.0 mm 0.00 in0.0 mm 0.00 in0.0 mm
03:00 AM 74.3°F23.5°C 72.8°F22.7°C 95% 2.0 mph SE3.2 kmh SE 7.0 mph11.3 kmh 30.02 in1016.6 mb 0.00 in0.0 mm 0.00 in0.0 mm 0.00 in0.0 mm
02:50 AM 74.3°F23.5°C 72.8°F22.7°C 95% 3.0 mph ESE4.8 kmh ESE 8.0 mph12.9 kmh 30.02 in1016.6 mb 0.00 in0.0 mm 0.00 in0.0 mm 0.00 in0.0 mm
02:40 AM 74.2°F23.4°C 72.7°F22.6°C 95% 3.0 mph SE4.8 kmh SE 9.0 mph14.5 kmh 30.02 in1016.6 mb 0.00 in0.0 mm 0.00 in0.0 mm 0.00 in0.0 mm
02:30 AM 74.2°F23.4°C 72.7°F22.6°C 95% 3.0 mph SE4.8 kmh SE 6.0 mph9.7 kmh 30.02 in1016.6 mb 0.00 in0.0 mm 0.00 in0.0 mm 0.00 in0.0 mm
02:20 AM 74.0°F23.3°C 72.2°F22.3°C 94% 2.0 mph SE3.2 kmh SE 6.0 mph9.7 kmh 30.03 in1016.9 mb 0.00 in0.0 mm 0.00 in0.0 mm 0.00 in0.0 mm
02:10 AM 74.1°F23.4°C 72.3°F22.4°C 94% 2.0 mph ESE3.2 kmh ESE 4.0 mph6.4 kmh 30.03 in1016.9 mb 0.00 in0.0 mm 0.00 in0.0 mm 0.00 in0.0 mm
02:00 AM 74.3°F23.5°C 72.5°F22.5°C 94% 2.0 mph SE3.2 kmh SE 6.0 mph9.7 kmh 30.03 in1016.9 mb 0.00 in0.0 mm 0.00 in0.0 mm 0.00 in0.0 mm
01:50 AM 74.3°F23.5°C 72.5°F22.5°C 94% 1.0 mph ESE1.6 kmh ESE 4.0 mph6.4 kmh 30.04 in1017.3 mb 0.00 in0.0 mm 0.00 in0.0 mm 0.00 in0.0 mm
01:40 AM 74.4°F23.6°C 72.2°F22.3°C 93% 1.0 mph ESE1.6 kmh ESE 4.0 mph6.4 kmh 30.04 in1017.3 mb 0.00 in0.0 mm 0.00 in0.0 mm 0.00 in0.0 mm
01:30 AM 74.5°F23.6°C 72.3°F22.4°C 93% 2.0 mph SE3.2 kmh SE 4.0 mph6.4 kmh 30.04 in1017.3 mb 0.00 in0.0 mm 0.00 in0.0 mm 0.00 in0.0 mm
01:20 AM 74.6°F23.7°C 72.4°F22.4°C 93% 1.0 mph SE1.6 kmh SE 4.0 mph6.4 kmh 30.04 in1017.3 mb 0.00 in0.0 mm 0.00 in0.0 mm 0.00 in0.0 mm
01:10 AM 74.6°F23.7°C 72.4°F22.4°C 93% 1.0 mph ESE1.6 kmh ESE 4.0 mph6.4 kmh 30.04 in1017.3 mb 0.00 in0.0 mm 0.00 in0.0 mm 0.00 in0.0 mm
01:00 AM 74.7°F23.7°C 72.5°F22.5°C 93% 2.0 mph ESE3.2 kmh ESE 6.0 mph9.7 kmh 30.04 in1017.3 mb 0.00 in0.0 mm 0.00 in0.0 mm 0.00 in0.0 mm
12:50 AM 74.8°F23.8°C 72.6°F22.6°C 93% 2.0 mph SE3.2 kmh SE 8.0 mph12.9 kmh 30.04 in1017.3 mb 0.00 in0.0 mm 0.00 in0.0 mm 0.00 in0.0 mm
12:40 AM 74.8°F23.8°C 72.6°F22.6°C 93% 2.0 mph SE3.2 kmh SE 7.0 mph11.3 kmh 30.04 in1017.3 mb 0.00 in0.0 mm 0.00 in0.0 mm 0.00 in0.0 mm
12:30 AM 74.7°F23.7°C 72.5°F22.5°C 93% 2.0 mph SE3.2 kmh SE 6.0 mph9.7 kmh 30.04 in1017.3 mb 0.00 in0.0 mm 0.00 in0.0 mm 0.00 in0.0 mm
12:20 AM 74.6°F23.7°C 72.4°F22.4°C 93% 2.0 mph SE3.2 kmh SE 6.0 mph9.7 kmh 30.05 in1017.6 mb 0.00 in0.0 mm 0.00 in0.0 mm 0.00 in0.0 mm
12:10 AM 74.4°F23.6°C 71.9°F22.2°C 92% 2.0 mph SE3.2 kmh SE 6.0 mph9.7 kmh 30.04 in1017.3 mb 0.00 in0.0 mm 0.00 in0.0 mm 0.00 in0.0 mm
12:00 AM 74.4°F23.6°C 71.9°F22.2°C 92% 2.0 mph SE3.2 kmh SE 8.0 mph12.9 kmh 30.04 in1017.3 mb 0.00 in0.0 mm 0.00 in0.0 mm 0.00 in0.0 mm